Time;durP1;ratioP1;P1;durP2;ratioP2;P2;SDS_P1;SDS_P2;PMS_P1;PMS_P2;Temp;Humidity;BMP_temperature;BMP_pressure;BME280_temperature;BME280_humidity;BME280_pressure;Samples;Min_cycle;Max_cycle;Signal;HPM_P1;HPM_P2
2022/11/17 00:01:35;;;;;;;9.13;6.07;;;;;;;8.45;100.00;98684.25;4950295;28;20027;-65
2022/11/17 00:04:01;;;;;;;8.20;5.82;;;;;;;8.47;100.00;98692.88;4950326;28;20406;-64
2022/11/17 00:06:26;;;;;;;9.93;6.20;;;;;;;8.48;100.00;98682.56;4962524;28;20081;-64
2022/11/17 00:08:52;;;;;;;8.15;6.05;;;;;;;8.49;100.00;98680.84;4977973;28;20486;-64
2022/11/17 00:11:17;;;;;;;11.88;6.03;;;;;;;8.48;100.00;98653.28;4949867;28;20019;-64
2022/11/17 00:16:26;;;;;;;7.13;6.18;;;;;;;8.50;100.00;98651.59;4950570;28;20093;-64
2022/11/17 00:21:35;;;;;;;9.95;6.80;;;;;;;8.51;100.00;98642.97;4950112;28;20042;-64
2022/11/17 00:24:01;;;;;;;9.70;7.10;;;;;;;8.52;100.00;98634.38;4950813;28;20031;-65
2022/11/17 00:26:32;;;;;;;12.57;7.22;;;;;;;8.51;100.00;98623.19;4950081;28;20031;-65
2022/11/17 00:29:05;;;;;;;8.05;6.72;;;;;;;8.52;100.00;98614.59;4965161;28;20037;-64
2022/11/17 00:34:19;;;;;;;10.77;6.63;;;;;;;8.54;100.00;98596.53;4950017;28;20113;-64
2022/11/17 00:36:50;;;;;;;9.18;6.30;;;;;;;8.55;100.00;98608.56;4972888;28;20135;-64
2022/11/17 00:39:17;;;;;;;8.48;5.90;;;;;;;8.56;100.00;98589.69;4949418;28;20387;-64
2022/11/17 00:41:43;;;;;;;8.85;6.40;;;;;;;8.56;100.00;98579.38;4949664;28;20399;-64
2022/11/17 00:44:09;;;;;;;8.02;5.50;;;;;;;8.56;100.00;98581.97;4949630;28;20023;-64
2022/11/17 00:46:36;;;;;;;6.80;5.70;;;;;;;8.59;100.00;98574.22;4952651;28;20152;-64
2022/11/17 00:49:02;;;;;;;9.27;5.50;;;;;;;8.58;100.00;98575.06;4954138;28;20393;-64
2022/11/17 00:51:28;;;;;;;9.52;5.82;;;;;;;8.58;100.00;98567.31;4954613;28;20027;-64
2022/11/17 00:53:53;;;;;;;9.60;5.00;;;;;;;8.59;100.00;98574.22;4952722;28;20027;-64
2022/11/17 00:56:19;;;;;;;6.25;4.63;;;;;;;8.59;100.00;98571.63;4949040;28;20019;-64
2022/11/17 00:58:44;;;;;;;6.85;4.63;;;;;;;8.60;100.00;98575.94;4965891;28;20474;-64
2022/11/17 01:01:10;;;;;;;6.55;4.60;;;;;;;8.61;100.00;98562.19;4953431;28;20016;-64
2022/11/17 01:03:36;;;;;;;7.63;4.25;;;;;;;8.62;100.00;98561.31;4949555;28;20031;-64
2022/11/17 01:06:13;;;;;;;8.20;4.97;;;;;;;8.60;100.00;98550.13;4956035;28;20031;-64
2022/11/17 01:08:39;;;;;;;8.23;4.13;;;;;;;8.62;100.00;98560.44;4953389;28;20038;-65
2022/11/17 01:11:16;;;;;;;7.25;4.20;;;;;;;8.62;100.00;98550.13;4963691;28;20023;-64
2022/11/17 01:13:43;;;;;;;7.43;4.75;;;;;;;8.62;100.00;98570.75;4968029;28;20085;-64
2022/11/17 01:16:11;;;;;;;6.95;4.05;;;;;;;8.62;100.00;98571.63;4966637;28;20442;-64
2022/11/17 01:18:37;;;;;;;5.63;4.07;;;;;;;8.62;100.00;98520.00;4948531;28;20020;-65
2022/11/17 01:21:08;;;;;;;5.40;3.88;;;;;;;8.63;100.00;98529.47;4948967;28;20053;-65
2022/11/17 01:23:34;;;;;;;3.50;3.20;;;;;;;8.67;100.00;98534.66;4949837;28;20023;-64
2022/11/17 01:26:01;;;;;;;5.00;3.40;;;;;;;8.67;100.00;98538.06;4951787;28;20459;-64
2022/11/17 01:28:27;;;;;;;5.35;3.13;;;;;;;8.68;100.00;98541.53;4952941;28;20027;-64
2022/11/17 01:30:59;;;;;;;3.70;2.00;;;;;;;8.70;100.00;98519.16;4962387;28;20525;-64
2022/11/17 01:33:24;;;;;;;4.95;2.33;;;;;;;8.74;100.00;98528.66;4958110;28;20459;-64
2022/11/17 01:35:49;;;;;;;4.72;2.28;;;;;;;8.75;100.00;98517.44;4968410;28;20046;-64
2022/11/17 01:38:15;;;;;;;3.17;2.10;;;;;;;8.76;100.00;98511.44;4972522;28;20031;-64
2022/11/17 01:40:40;;;;;;;2.13;1.80;;;;;;;8.79;100.00;98514.03;4952818;28;20058;-64
2022/11/17 01:43:11;;;;;;;3.67;2.35;;;;;;;8.80;100.00;98495.06;4955935;28;20031;-64
2022/11/17 01:45:37;;;;;;;;;;;;;;;8.83;100.00;98496.81;4952879;28;20530;-65
2022/11/17 01:48:05;;;;;;;2.97;2.35;;;;;;;8.83;100.00;98487.31;4966999;28;19922;-64
2022/11/17 01:50:48;;;;;;;4.93;2.20;;;;;;;8.82;100.00;98477.88;4971193;28;20038;-64
2022/11/17 01:53:16;;;;;;;2.72;1.90;;;;;;;8.82;100.00;98477.88;4964972;28;20030;-64
2022/11/17 01:55:53;;;;;;;4.88;2.13;;;;;;;8.83;100.00;98471.00;4967416;28;20074;-64
2022/11/17 01:58:26;;;;;;;2.60;2.40;;;;;;;8.83;100.00;98463.25;4962512;28;20031;-64
2022/11/17 02:00:53;;;;;;;4.05;2.53;;;;;;;8.83;100.00;98464.09;4952942;28;20026;-65
2022/11/17 02:03:19;;;;;;;3.22;2.42;;;;;;;8.84;100.00;98460.66;4963391;28;20022;-64
2022/11/17 02:05:54;;;;;;;9.02;2.30;;;;;;;8.84;100.00;98465.81;4959258;28;20417;-65
2022/11/17 02:08:22;;;;;;;4.70;2.60;;;;;;;8.88;100.00;98482.19;4959051;28;20440;-64
2022/11/17 02:10:49;;;;;;;3.03;2.40;;;;;;;8.88;100.00;98466.69;4952413;28;20098;-64
2022/11/17 02:13:15;;;;;;;4.47;2.58;;;;;;;8.89;100.00;98468.41;4952089;28;20065;-64
2022/11/17 02:15:40;;;;;;;2.92;2.60;;;;;;;8.89;100.00;98465.81;4952588;28;20043;-64
2022/11/17 02:18:05;;;;;;;2.33;2.13;;;;;;;8.89;100.00;98461.53;4951446;28;20081;-64
2022/11/17 02:21:01;;;;;;;2.30;2.10;;;;;;;8.89;100.00;98458.06;4952851;28;20027;-64
2022/11/17 02:23:52;;;;;;;5.82;2.40;;;;;;;8.87;100.00;98440.00;4951880;28;20031;-64
2022/11/17 02:26:23;;;;;;;;;;;;;;;8.89;100.00;98450.31;4952708;28;20062;-65
2022/11/17 02:29:01;;;;;;;2.80;2.17;;;;;;;8.91;100.00;98460.66;4952208;28;19914;-64
2022/11/17 02:31:35;;;;;;;2.58;1.75;;;;;;;8.92;100.00;98467.56;4965699;28;20023;-64
2022/11/17 02:34:22;;;;;;;2.00;1.90;;;;;;;8.91;100.00;98447.72;4951595;28;20035;-64
2022/11/17 02:37:16;;;;;;;2.15;2.00;;;;;;;8.91;100.00;98425.34;4950557;28;20031;-64
2022/11/17 02:40:23;;;;;;;3.20;1.60;;;;;;;8.91;100.00;98430.53;4959988;28;20126;-64
2022/11/17 02:45:52;;;;;;;2.90;1.60;;;;;;;8.95;100.00;98424.50;4952396;28;20090;-64
2022/11/17 02:48:32;;;;;;;3.22;1.30;;;;;;;8.97;100.00;98422.78;4951333;28;20051;-64
2022/11/17 02:50:58;;;;;;;1.42;1.33;;;;;;;8.99;100.00;98418.47;4959636;28;20026;-64
2022/11/17 02:53:26;;;;;;;3.30;1.30;;;;;;;9.01;100.00;98410.72;4963432;28;20542;-64
2022/11/17 02:55:53;;;;;;;2.35;1.30;;;;;;;9.00;100.00;98419.31;4954921;28;20459;-64
2022/11/17 02:58:19;;;;;;;3.92;1.45;;;;;;;8.98;100.00;98401.25;4950753;28;20031;-64
2022/11/17 03:01:02;;;;;;;1.65;1.30;;;;;;;8.97;100.00;98393.50;4952775;28;20041;-65
2022/11/17 03:03:33;;;;;;;2.35;1.20;;;;;;;8.96;100.00;98391.78;4951165;28;20055;-64
2022/11/17 03:06:23;;;;;;;2.50;1.10;;;;;;;8.93;100.00;98389.19;4957639;28;20441;-64
2022/11/17 03:09:05;;;;;;;3.05;1.30;;;;;;;8.91;100.00;98378.88;4953807;28;20050;-64
2022/11/17 03:11:43;;;;;;;4.47;1.20;;;;;;;8.88;100.00;98374.56;4950804;28;20358;-65
2022/11/17 03:14:19;;;;;;;1.77;1.27;;;;;;;8.87;100.00;98366.81;4958201;28;20025;-64
2022/11/17 03:17:08;;;;;;;2.33;1.42;;;;;;;8.86;100.00;98365.97;4956060;28;20027;-64
2022/11/17 03:19:43;;;;;;;2.47;1.27;;;;;;;8.86;100.00;98371.13;4981252;28;20022;-65
2022/11/17 03:22:18;;;;;;;1.55;0.93;;;;;;;8.88;100.00;98368.53;4950739;28;20471;-65
2022/11/17 03:24:49;;;;;;;1.27;0.70;;;;;;;8.88;100.00;98364.25;4950433;28;20485;-64
2022/11/17 03:27:26;;;;;;;1.25;0.60;;;;;;;8.87;100.00;98362.50;4967270;28;20489;-64
2022/11/17 03:29:56;;;;;;;0.65;0.60;;;;;;;8.86;100.00;98355.63;4956797;28;20434;-65
2022/11/17 03:32:23;;;;;;;0.70;0.50;;;;;;;8.86;100.00;98353.06;4951035;28;20486;-64
2022/11/17 03:34:55;;;;;;;0.85;0.50;;;;;;;8.84;100.00;98353.91;4954327;28;20034;-64
2022/11/17 03:37:22;;;;;;;0.98;0.80;;;;;;;8.84;100.00;98347.03;4958091;28;20086;-65
2022/11/17 03:39:56;;;;;;;0.63;0.60;;;;;;;8.83;100.00;98350.44;4959963;28;20026;-65
2022/11/17 03:42:26;;;;;;;2.33;0.55;;;;;;;8.81;100.00;98341.00;4976425;28;20554;-65
2022/11/17 03:44:59;;;;;;;0.82;0.30;;;;;;;8.77;100.00;98340.13;4951048;28;20019;-66
2022/11/17 03:47:27;;;;;;;1.27;0.50;;;;;;;8.77;100.00;98334.97;4949635;28;20434;-65
2022/11/17 03:50:07;;;;;;;2.85;0.40;;;;;;;8.77;100.00;98329.81;4950158;28;20114;-66
2022/11/17 03:52:34;;;;;;;0.40;0.40;;;;;;;8.79;100.00;98338.41;4951187;28;20034;-66
2022/11/17 03:55:00;;;;;;;1.52;0.32;;;;;;;8.80;100.00;98327.22;4950358;28;20031;-65
2022/11/17 03:57:36;;;;;;;1.48;0.40;;;;;;;8.81;100.00;98331.53;4949766;28;20031;-65
2022/11/17 04:00:10;;;;;;;1.50;0.30;;;;;;;8.84;100.00;98326.38;4950300;28;20111;-65
2022/11/17 04:02:38;;;;;;;0.65;0.52;;;;;;;8.88;100.00;98322.91;4949950;28;20106;-65
2022/11/17 04:05:04;;;;;;;0.70;0.50;;;;;;;8.91;100.00;98310.84;4950037;28;20027;-65
2022/11/17 04:07:41;;;;;;;1.10;0.30;;;;;;;8.95;100.00;98313.44;4962360;28;20027;-65
2022/11/17 04:10:09;;;;;;;2.10;0.40;;;;;;;8.97;100.00;98321.19;4950626;28;20031;-66
2022/11/17 04:18:03;;;;;;;1.20;0.68;;;;;;;9.03;100.00;98331.47;4950953;28;20039;-65
2022/11/17 04:20:34;;;;;;;0.70;0.70;;;;;;;9.04;100.00;98328.06;4961892;28;20479;-65
2022/11/17 04:23:07;;;;;;;1.38;0.90;;;;;;;9.05;100.00;98322.00;4952704;28;20053;-65
2022/11/17 04:28:38;;;;;;;1.55;1.35;;;;;;;9.07;100.00;98311.66;4952735;28;20050;-65
2022/11/17 04:31:13;;;;;;;4.32;1.85;;;;;;;9.07;100.00;98296.16;4949355;28;20085;-65
2022/11/17 04:33:47;;;;;;;2.15;1.95;;;;;;;9.07;100.00;98309.94;4947379;28;20150;-65
2022/11/17 04:36:14;;;;;;;2.80;2.08;;;;;;;9.08;100.00;98313.41;4950021;28;20027;-64
2022/11/17 04:38:43;;;;;;;3.17;1.80;;;;;;;9.06;100.00;98316.00;4949336;28;20086;-64
2022/11/17 04:43:54;;;;;;;2.65;2.00;;;;;;;9.03;100.00;98321.16;4950067;28;20446;-65
2022/11/17 04:46:21;;;;;;;2.33;1.50;;;;;;;8.99;100.00;98304.78;4949229;28;21773;-64
2022/11/17 04:48:47;;;;;;;1.95;1.55;;;;;;;8.96;100.00;98288.47;4950313;28;20047;-64
2022/11/17 04:51:14;;;;;;;2.92;1.40;;;;;;;8.95;100.00;98286.72;4951204;28;20553;-64
2022/11/17 04:53:40;;;;;;;2.33;1.40;;;;;;;8.94;100.00;98285.03;4949370;28;20102;-64
2022/11/17 04:56:06;;;;;;;1.50;1.40;;;;;;;8.92;100.00;98273.84;4955623;28;20386;-64
2022/11/17 04:58:32;;;;;;;4.43;1.40;;;;;;;8.92;100.00;98273.84;4957254;28;20035;-65
2022/11/17 05:01:11;;;;;;;3.28;1.50;;;;;;;8.91;100.00;98270.38;4949271;28;20456;-64
2022/11/17 05:03:40;;;;;;;1.88;1.77;;;;;;;8.89;100.00;98267.81;4950035;28;20107;-64
2022/11/17 05:06:06;;;;;;;4.53;1.20;;;;;;;8.88;100.00;98260.94;4953658;28;20026;-65
2022/11/17 05:08:34;;;;;;;2.67;1.35;;;;;;;8.87;100.00;98268.66;4966297;28;20476;-64
2022/11/17 05:13:43;;;;;;;4.05;1.40;;;;;;;8.86;100.00;98273.00;4949432;28;20463;-64
2022/11/17 05:18:52;;;;;;;4.68;1.73;;;;;;;8.85;100.00;98281.59;4960848;28;20042;-64
2022/11/17 05:21:18;;;;;;;2.00;1.30;;;;;;;8.86;100.00;98283.31;4950204;28;20019;-64
2022/11/17 05:23:55;;;;;;;2.67;1.52;;;;;;;8.85;100.00;98281.59;4949136;28;20463;-65
2022/11/17 05:26:28;;;;;;;4.13;1.30;;;;;;;8.86;100.00;98291.06;4950996;28;20023;-64
2022/11/17 05:28:55;;;;;;;3.55;1.38;;;;;;;8.87;100.00;98300.53;4957252;28;20019;-65
2022/11/17 05:31:21;;;;;;;5.22;1.00;;;;;;;8.90;100.00;98299.66;4949003;28;20457;-64
2022/11/17 05:33:47;;;;;;;4.63;0.88;;;;;;;8.90;100.00;98304.84;4950740;28;20078;-65
2022/11/17 05:36:13;;;;;;;3.40;1.10;;;;;;;8.93;100.00;98314.28;4948808;28;20024;-65
2022/11/17 05:38:39;;;;;;;5.78;1.35;;;;;;;8.94;100.00;98308.28;4949305;28;20386;-65
2022/11/17 05:41:05;;;;;;;6.45;1.13;;;;;;;8.95;100.00;98317.72;4948486;28;20554;-65
2022/11/17 05:43:30;;;;;;;6.75;1.42;;;;;;;8.96;100.00;98319.47;4953684;28;20418;-65
2022/11/17 05:45:55;;;;;;;6.82;1.38;;;;;;;8.97;100.00;98313.44;4948606;28;20039;-65
2022/11/17 05:48:20;;;;;;;6.63;2.00;;;;;;;8.96;100.00;98316.88;4948475;28;20058;-65
2022/11/17 05:50:46;;;;;;;5.68;1.20;;;;;;;8.96;100.00;98319.47;4948487;28;20123;-65
2022/11/17 05:53:11;;;;;;;6.07;1.85;;;;;;;8.96;100.00;98320.31;4948154;28;20062;-65
2022/11/17 05:55:37;;;;;;;6.20;1.48;;;;;;;8.97;100.00;98323.75;4948353;28;20023;-65
2022/11/17 05:58:25;;;;;;;8.38;2.65;;;;;;;8.97;100.00;98331.50;4949017;28;20134;-65
2022/11/17 06:00:53;;;;;;;8.13;1.65;;;;;;;8.98;100.00;98330.63;4948189;28;20036;-64
2022/11/17 06:03:26;;;;;;;7.32;1.50;;;;;;;8.97;100.00;98328.94;4957909;28;20036;-64
2022/11/17 06:05:52;;;;;;;4.35;0.90;;;;;;;8.98;100.00;98333.22;4972898;28;20030;-64
2022/11/17 06:08:18;;;;;;;8.65;1.30;;;;;;;8.98;100.00;98334.09;4956174;28;20360;-65
2022/11/17 06:10:43;;;;;;;11.43;1.90;;;;;;;8.98;100.00;98338.38;4962205;28;20042;-64
2022/11/17 06:13:08;;;;;;;12.90;1.77;;;;;;;8.97;100.00;98336.69;4952235;28;20035;-64
2022/11/17 06:15:34;;;;;;;8.65;1.80;;;;;;;8.96;100.00;98334.97;4952381;28;20613;-64
2022/11/17 06:18:07;;;;;;;8.95;1.95;;;;;;;8.98;100.00;98343.53;4953205;28;20435;-64
2022/11/17 06:20:38;;;;;;;7.75;1.42;;;;;;;8.96;100.00;98345.28;4961921;28;20541;-65
2022/11/17 06:23:05;;;;;;;8.15;2.00;;;;;;;8.94;100.00;98342.69;4961599;28;20031;-64
2022/11/17 06:25:34;;;;;;;7.00;1.52;;;;;;;8.94;100.00;98347.84;4951253;28;20502;-64
2022/11/17 06:28:02;;;;;;;11.85;1.77;;;;;;;8.94;100.00;98352.19;4951793;28;20038;-64
2022/11/17 06:30:28;;;;;;;8.00;1.45;;;;;;;8.93;100.00;98351.31;4951191;28;20107;-64
2022/11/17 06:32:55;;;;;;;5.95;1.60;;;;;;;8.93;100.00;98350.44;4951715;28;20098;-64
2022/11/17 06:35:21;;;;;;;7.25;1.38;;;;;;;8.90;100.00;98356.50;4953542;28;20489;-65
2022/11/17 06:37:46;;;;;;;6.35;1.27;;;;;;;8.87;100.00;98359.94;4963955;28;20792;-64
2022/11/17 06:40:12;;;;;;;5.20;1.10;;;;;;;8.84;100.00;98365.09;4966464;28;20033;-64
2022/11/17 06:45:22;;;;;;;3.85;1.38;;;;;;;8.79;100.00;98364.25;4956338;28;20113;-64
2022/11/17 06:47:47;;;;;;;4.15;1.02;;;;;;;8.78;100.00;98370.25;4955270;28;20130;-64
2022/11/17 06:50:12;;;;;;;5.15;1.15;;;;;;;8.76;100.00;98370.25;4954173;28;20041;-64
2022/11/17 06:52:38;;;;;;;4.78;0.98;;;;;;;8.76;100.00;98374.59;4958175;28;20472;-64
2022/11/17 06:55:03;;;;;;;4.50;0.95;;;;;;;8.74;100.00;98379.72;4960188;28;20157;-64
2022/11/17 06:57:29;;;;;;;7.18;1.70;;;;;;;8.72;100.00;98378.00;4965282;28;20080;-65
2022/11/17 06:59:54;;;;;;;5.03;1.20;;;;;;;8.71;100.00;98392.63;4959316;28;20029;-65
2022/11/17 07:02:20;;;;;;;5.35;1.08;;;;;;;8.70;100.00;98387.47;4962926;28;20026;-65
2022/11/17 07:04:45;;;;;;;6.80;1.30;;;;;;;8.68;100.00;98389.19;4949637;28;20012;-65
2022/11/17 07:07:11;;;;;;;4.50;0.98;;;;;;;8.65;100.00;98398.66;4958371;28;20030;-65
2022/11/17 07:09:37;;;;;;;8.93;1.35;;;;;;;8.63;100.00;98396.94;4950295;28;20043;-64
2022/11/17 07:12:02;;;;;;;5.00;1.00;;;;;;;8.61;100.00;98402.13;4953443;28;20023;-64
2022/11/17 07:14:27;;;;;;;5.05;1.00;;;;;;;8.61;100.00;98396.94;4948123;28;20034;-65
2022/11/17 07:16:53;;;;;;;3.83;0.82;;;;;;;8.60;100.00;98395.22;4954732;28;20027;-64
2022/11/17 07:19:18;;;;;;;5.13;1.30;;;;;;;8.57;100.00;98395.22;4957141;28;20217;-64
2022/11/17 07:21:43;;;;;;;3.78;1.02;;;;;;;8.58;100.00;98414.16;4948491;28;20409;-64
2022/11/17 07:24:08;;;;;;;4.10;1.00;;;;;;;8.52;100.00;98409.81;4949544;28;20500;-65
2022/11/17 07:26:34;;;;;;;5.72;0.85;;;;;;;8.51;100.00;98411.50;4949457;28;20041;-64
2022/11/17 07:29:00;;;;;;;3.08;0.88;;;;;;;8.51;100.00;98408.06;4950507;28;20102;-65
2022/11/17 07:31:25;;;;;;;3.72;0.98;;;;;;;8.50;100.00;98414.97;4962633;28;20035;-65
2022/11/17 07:33:52;;;;;;;5.30;1.17;;;;;;;8.48;100.00;98420.97;4952473;28;20586;-64
2022/11/17 07:36:17;;;;;;;3.85;0.90;;;;;;;8.48;100.00;98423.56;4950202;28;20049;-64
2022/11/17 07:38:43;;;;;;;3.78;0.98;;;;;;;8.46;100.00;98423.56;4952575;28;20030;-65
2022/11/17 07:41:11;;;;;;;2.85;0.70;;;;;;;8.46;100.00;98426.13;4952770;28;20062;-65
2022/11/17 07:43:36;;;;;;;4.85;1.10;;;;;;;8.43;100.00;98423.56;4953018;28;20047;-64
2022/11/17 07:46:13;;;;;;;2.70;0.88;;;;;;;8.40;100.00;98437.31;4953944;28;20522;-64
2022/11/17 07:48:39;;;;;;;4.07;1.25;;;;;;;8.37;100.00;98429.56;4950700;28;20106;-64
2022/11/17 07:51:05;;;;;;;2.97;0.90;;;;;;;8.37;100.00;98431.28;4950944;28;20476;-64
2022/11/17 07:53:32;;;;;;;5.22;0.80;;;;;;;8.35;100.00;98441.59;4950275;28;20110;-65
2022/11/17 07:56:09;;;;;;;7.25;0.90;;;;;;;8.36;100.00;98438.19;4950114;28;20034;-65
2022/11/17 07:58:35;;;;;;;4.63;1.10;;;;;;;8.36;100.00;98437.31;4949569;28;20034;-64
2022/11/17 08:01:05;;;;;;;4.03;0.70;;;;;;;8.36;100.00;98442.47;4951066;28;20035;-65
2022/11/17 08:03:30;;;;;;;3.67;1.15;;;;;;;8.36;100.00;98447.63;4949730;28;20480;-64
2022/11/17 08:05:56;;;;;;;1.98;0.90;;;;;;;8.36;100.00;98452.78;4948557;28;20077;-64
2022/11/17 08:08:22;;;;;;;4.82;0.90;;;;;;;8.35;100.00;98453.63;4950140;28;20034;-65
2022/11/17 08:10:47;;;;;;;4.30;0.75;;;;;;;8.36;100.00;98458.81;4956450;28;20023;-65
2022/11/17 08:13:14;;;;;;;6.32;0.75;;;;;;;8.34;100.00;98457.94;4960108;28;20022;-64
2022/11/17 08:15:39;;;;;;;3.47;0.82;;;;;;;8.34;100.00;98463.13;4951031;28;20034;-65
2022/11/17 08:18:05;;;;;;;4.07;0.70;;;;;;;8.34;100.00;98470.84;4959737;28;20027;-64
2022/11/17 08:20:30;;;;;;;3.45;0.60;;;;;;;8.33;100.00;98468.28;4964658;28;20026;-65
2022/11/17 08:22:56;;;;;;;1.48;0.73;;;;;;;8.33;100.00;98473.44;4950174;28;20035;-65
2022/11/17 08:25:23;;;;;;;2.85;0.85;;;;;;;8.31;100.00;98475.97;4958106;28;20522;-65
2022/11/17 08:27:50;;;;;;;3.38;0.77;;;;;;;8.32;100.00;98489.75;4955589;28;20357;-65
2022/11/17 08:30:17;;;;;;;1.40;0.35;;;;;;;8.29;100.00;98488.03;4956815;28;20063;-65
2022/11/17 08:32:51;;;;;;;3.65;0.75;;;;;;;8.28;100.00;98484.59;4949809;28;20509;-65
2022/11/17 08:35:19;;;;;;;2.15;0.70;;;;;;;8.27;100.00;98484.59;4950222;28;20384;-65
2022/11/17 08:37:44;;;;;;;3.33;0.60;;;;;;;8.25;100.00;98491.47;4949270;28;20074;-65
2022/11/17 08:40:11;;;;;;;1.55;0.45;;;;;;;8.23;100.00;98493.16;4952580;28;20031;-65
2022/11/17 08:42:37;;;;;;;6.13;0.93;;;;;;;8.23;100.00;98495.75;4951815;28;20101;-65
2022/11/17 08:45:03;;;;;;;2.90;0.82;;;;;;;8.22;100.00;98496.63;4951765;28;20027;-65
2022/11/17 08:47:29;;;;;;;2.05;1.00;;;;;;;8.21;100.00;98500.91;4949234;28;20055;-65
2022/11/17 08:49:54;;;;;;;2.22;0.40;;;;;;;8.21;100.00;98500.03;4950780;28;20035;-64
2022/11/17 08:52:20;;;;;;;3.80;0.65;;;;;;;8.18;100.00;98500.91;4949362;28;20045;-64
2022/11/17 08:54:45;;;;;;;4.85;0.60;;;;;;;8.15;100.00;98501.72;4948410;28;20027;-65
2022/11/17 08:57:10;;;;;;;4.88;1.00;;;;;;;8.16;100.00;98508.63;4948758;28;20090;-65
2022/11/17 08:59:36;;;;;;;6.90;1.00;;;;;;;8.16;100.00;98502.59;4947931;28;20595;-64
2022/11/17 09:02:01;;;;;;;2.70;0.82;;;;;;;8.14;100.00;98504.31;4949904;28;20031;-64
2022/11/17 09:04:26;;;;;;;1.27;0.60;;;;;;;8.16;100.00;98508.63;4950389;28;20027;-65
2022/11/17 09:06:51;;;;;;;4.90;0.93;;;;;;;8.14;100.00;98512.06;4949206;28;20543;-65
2022/11/17 09:09:17;;;;;;;4.35;0.65;;;;;;;8.15;100.00;98501.72;4956576;28;20027;-64
2022/11/17 09:11:42;;;;;;;4.40;0.85;;;;;;;8.15;100.00;98522.38;4960880;28;20035;-64
2022/11/17 09:14:08;;;;;;;5.50;0.90;;;;;;;8.16;100.00;98512.94;4949094;28;20483;-65
2022/11/17 09:16:34;;;;;;;5.82;0.95;;;;;;;8.16;100.00;98523.25;4952949;28;20106;-65
2022/11/17 09:18:59;;;;;;;2.92;0.70;;;;;;;8.15;100.00;98517.22;4957867;28;20137;-65
2022/11/17 09:21:26;;;;;;;3.65;0.90;;;;;;;8.17;100.00;98525.81;4955147;28;20122;-64
2022/11/17 09:23:52;;;;;;;3.83;0.80;;;;;;;8.15;100.00;98532.69;4950760;28;20078;-64
2022/11/17 09:26:17;;;;;;;1.65;0.80;;;;;;;8.17;100.00;98535.28;4957514;28;20466;-64
2022/11/17 09:28:43;;;;;;;4.30;1.05;;;;;;;8.17;100.00;98536.16;4949172;28;20046;-65
2022/11/17 09:31:12;;;;;;;3.13;0.77;;;;;;;8.20;100.00;98542.19;4959028;28;20439;-64
2022/11/17 09:33:38;;;;;;;3.28;0.77;;;;;;;8.21;100.00;98547.34;4948799;28;20110;-65
2022/11/17 09:36:06;;;;;;;3.50;0.80;;;;;;;8.21;100.00;98543.91;4949471;28;20122;-65
2022/11/17 09:38:31;;;;;;;1.67;0.73;;;;;;;8.20;100.00;98540.47;4950859;28;20248;-64
2022/11/17 09:40:58;;;;;;;4.07;0.70;;;;;;;8.24;100.00;98541.34;4952636;28;20027;-64
2022/11/17 09:43:34;;;;;;;3.45;0.70;;;;;;;8.29;100.00;98555.13;4949014;28;20032;-65
2022/11/17 09:46:28;;;;;;;2.10;0.90;;;;;;;8.36;100.00;98556.03;4950149;28;20117;-64
2022/11/17 09:49:23;;;;;;;6.13;0.90;;;;;;;8.42;100.00;98556.03;4963865;28;20042;-64
2022/11/17 09:51:49;;;;;;;4.65;0.70;;;;;;;8.49;100.00;98562.09;4955491;28;20042;-64
2022/11/17 09:54:22;;;;;;;3.53;0.88;;;;;;;8.55;100.00;98559.53;4963641;28;20038;-64
2022/11/17 09:56:48;;;;;;;6.20;1.25;;;;;;;8.60;100.00;98560.44;4951915;28;20031;-64
2022/11/17 09:59:18;;;;;;;4.88;1.02;;;;;;;8.65;100.00;98569.06;4951637;28;20110;-64
2022/11/17 10:01:43;;;;;;;2.78;0.80;;;;;;;8.72;100.00;98564.81;4952194;28;20015;-65
2022/11/17 10:04:15;;;;;;;3.83;1.58;;;;;;;8.73;100.00;98578.56;4953752;28;20456;-64
2022/11/17 10:06:43;;;;;;;4.60;0.98;;;;;;;8.77;100.00;98577.72;4952399;28;20037;-64
2022/11/17 10:09:19;;;;;;;3.22;0.82;;;;;;;8.79;100.00;98580.31;4963473;28;20086;-64
2022/11/17 10:11:45;;;;;;;4.45;1.25;;;;;;;8.83;100.00;98582.88;4957505;28;20035;-64
2022/11/17 10:14:14;;;;;;;6.30;0.80;;;;;;;8.82;100.00;98594.09;4952921;28;20034;-64
2022/11/17 10:16:43;;;;;;;6.55;0.93;;;;;;;8.87;100.00;98592.38;4952127;28;20023;-64
2022/11/17 10:19:15;;;;;;;3.53;0.70;;;;;;;8.93;100.00;98594.13;4957944;28;20038;-64
2022/11/17 10:21:41;;;;;;;6.82;1.00;;;;;;;8.98;100.00;98588.94;4955881;28;20035;-65
2022/11/17 10:24:07;;;;;;;2.38;1.08;;;;;;;9.03;100.00;98596.72;4951856;28;20027;-64
2022/11/17 10:26:46;;;;;;;3.20;0.60;;;;;;;9.09;100.00;98597.59;4959752;28;20030;-64
2022/11/17 10:29:13;;;;;;;3.20;1.00;;;;;;;9.17;100.00;98591.59;4952642;28;20031;-64
2022/11/17 10:31:47;;;;;;;4.15;0.77;;;;;;;9.22;100.00;98602.78;4951552;28;20038;-65
2022/11/17 10:34:32;;;;;;;1.38;0.45;;;;;;;9.29;100.00;98612.28;4955192;28;20046;-64
2022/11/17 10:37:05;;;;;;;4.18;0.70;;;;;;;9.34;100.00;98615.72;4952147;28;20042;-64
2022/11/17 10:39:35;;;;;;;2.58;0.70;;;;;;;9.41;100.00;98614.00;4955660;28;20032;-64
2022/11/17 10:42:14;;;;;;;3.08;0.60;;;;;;;9.48;100.00;98613.16;4959321;28;20027;-64
2022/11/17 10:44:42;;;;;;;4.25;0.60;;;;;;;9.52;100.00;98618.31;4968494;28;20057;-64
2022/11/17 10:47:39;;;;;;;2.22;0.65;;;;;;;9.57;100.00;98621.81;4958093;28;20094;-64
2022/11/17 10:50:14;;;;;;;1.80;0.80;;;;;;;9.59;100.00;98626.09;4953162;28;20038;-64
2022/11/17 10:52:40;;;;;;;3.45;1.15;;;;;;;9.60;100.00;98625.25;4956315;28;20162;-64
2022/11/17 10:55:18;;;;;;;2.42;0.77;;;;;;;9.60;100.00;98627.84;4954899;28;20118;-66
2022/11/17 10:57:46;;;;;;;2.38;0.80;;;;;;;9.63;100.00;98633.84;4968108;28;20387;-65
2022/11/17 11:00:40;;;;;;;2.25;0.70;;;;;;;9.61;100.00;98634.72;4951448;28;20071;-64
2022/11/17 11:03:16;;;;;;;4.03;0.70;;;;;;;9.57;100.00;98637.31;4951662;28;20093;-64
2022/11/17 11:05:58;;;;;;;1.73;0.45;;;;;;;9.53;100.00;98631.28;4961576;28;20466;-64
2022/11/17 11:08:33;;;;;;;4.50;0.63;;;;;;;9.52;100.00;98645.06;4957994;28;20502;-64
2022/11/17 11:11:01;;;;;;;1.13;0.45;;;;;;;9.48;100.00;98644.19;4952004;28;20436;-64
2022/11/17 11:13:38;;;;;;;3.10;0.70;;;;;;;9.48;100.00;98638.13;4950853;28;20046;-64
2022/11/17 11:16:03;;;;;;;1.95;0.73;;;;;;;9.47;100.00;98644.19;4950527;28;20394;-64
2022/11/17 11:18:30;;;;;;;6.05;1.02;;;;;;;9.45;100.00;98648.50;4955127;28;20043;-65
2022/11/17 11:21:23;;;;;;;2.40;0.65;;;;;;;9.43;100.00;98655.38;4953784;28;20413;-64
2022/11/17 11:24:41;;;;;;;3.13;0.60;;;;;;;9.42;100.00;98648.50;4952042;28;20500;-65
2022/11/17 11:27:36;;;;;;;3.17;0.82;;;;;;;9.43;100.00;98651.06;4977309;28;20045;-65
2022/11/17 11:30:05;;;;;;;3.50;0.70;;;;;;;9.43;100.00;98650.19;4972319;28;20045;-65
2022/11/17 11:32:48;;;;;;;3.33;0.63;;;;;;;9.45;100.00;98656.25;4953866;28;20055;-64
2022/11/17 11:35:44;;;;;;;2.22;0.57;;;;;;;9.45;100.00;98664.88;4952327;28;20407;-64
2022/11/17 11:38:40;;;;;;;2.38;0.60;;;;;;;9.47;100.00;98667.44;4950543;28;20077;-65
2022/11/17 11:41:23;;;;;;;1.98;0.82;;;;;;;9.45;100.00;98666.59;4948938;28;20173;-64
2022/11/17 11:44:12;;;;;;;3.30;0.90;;;;;;;9.46;100.00;98670.91;4950953;28;20365;-64
2022/11/17 11:46:43;;;;;;;1.92;0.47;;;;;;;9.45;100.00;98669.16;4968321;28;20055;-64
2022/11/17 11:49:20;;;;;;;5.20;0.70;;;;;;;9.42;100.00;98676.94;4949376;28;20447;-64
2022/11/17 11:51:49;;;;;;;4.00;0.50;;;;;;;9.45;100.00;98682.09;4956857;28;20653;-64
2022/11/17 11:54:34;;;;;;;4.22;0.77;;;;;;;9.45;100.00;98680.38;4948873;28;20069;-64
2022/11/17 11:57:00;;;;;;;1.90;0.90;;;;;;;9.48;100.00;98670.03;4949324;28;20119;-64
2022/11/17 11:59:49;;;;;;;2.92;0.50;;;;;;;9.51;100.00;98679.53;4948788;28;20455;-64
2022/11/17 12:02:29;;;;;;;3.05;0.93;;;;;;;9.54;100.00;98684.69;4963389;28;20037;-65
2022/11/17 12:05:17;;;;;;;2.95;1.08;;;;;;;9.55;100.00;98681.25;4952460;28;20023;-64
2022/11/17 12:08:06;;;;;;;2.30;0.52;;;;;;;9.57;100.00;98683.84;4965317;28;20169;-64
2022/11/17 12:10:43;;;;;;;4.13;0.60;;;;;;;9.59;100.00;98685.56;4954430;28;20499;-64
2022/11/17 12:13:19;;;;;;;2.25;0.60;;;;;;;9.61;100.00;98690.75;4949905;28;20031;-65
2022/11/17 12:15:44;;;;;;;1.30;0.50;;;;;;;9.61;100.00;98691.63;4950259;28;20031;-64
2022/11/17 12:18:11;;;;;;;2.05;0.50;;;;;;;9.64;100.00;98695.06;4950378;28;20474;-65
2022/11/17 12:20:36;;;;;;;3.22;0.55;;;;;;;9.63;100.00;98693.31;4960209;28;20023;-65